Time;durP1;ratioP1;P1;durP2;ratioP2;P2;SDS_P1;SDS_P2;PMS_P1;PMS_P2;Temp;Humidity;BMP_temperature;BMP_pressure;BME280_temperature;BME280_humidity;BME280_pressure;Samples;Min_cycle;Max_cycle;Signal;HPM_P1;HPM_P2
2022/09/12 00:00:30;;;;;;;30.08;14.23;;;;;;;;;;4990896;28;20835;-76
2022/09/12 00:02:56;;;;;;;36.50;13.48;;;;;;;;;;4990569;28;20521;-76
2022/09/12 00:05:21;;;;;;;41.78;14.80;;;;;;;;;;4990321;28;20034;-76
2022/09/12 00:07:47;;;;;;;38.38;14.77;;;;;;;;;;4990679;28;20034;-77
2022/09/12 00:10:13;;;;;;;36.33;14.73;;;;;;;;;;4990762;28;20491;-76
2022/09/12 00:12:38;;;;;;;41.58;14.90;;;;;;;;;;4990784;28;20033;-76
2022/09/12 00:15:04;;;;;;;34.30;14.07;;;;;;;;;;4990546;28;20115;-76
2022/09/12 00:17:29;;;;;;;39.10;15.85;;;;;;;;;;4989914;28;20275;-76
2022/09/12 00:19:55;;;;;;;37.50;15.10;;;;;;;;;;4990196;28;20030;-77
2022/09/12 00:22:20;;;;;;;37.25;15.65;;;;;;;;;;4990317;28;20271;-76
2022/09/12 00:24:46;;;;;;;41.90;15.27;;;;;;;;;;4990310;28;20034;-77
2022/09/12 00:27:11;;;;;;;39.22;14.98;;;;;;;;;;4990409;28;20307;-76
2022/09/12 00:29:36;;;;;;;42.83;15.30;;;;;;;;;;4990477;28;20065;-76
2022/09/12 00:32:01;;;;;;;37.07;14.23;;;;;;;;;;4989580;28;20038;-75
2022/09/12 00:34:27;;;;;;;41.05;15.25;;;;;;;;;;4990530;28;20256;-76
2022/09/12 00:36:52;;;;;;;41.92;15.15;;;;;;;;;;4990741;28;20113;-76
2022/09/12 00:39:18;;;;;;;45.83;14.43;;;;;;;;;;4991015;28;20391;-78
2022/09/12 00:41:43;;;;;;;37.30;13.95;;;;;;;;;;4989605;28;20030;-76
2022/09/12 00:44:08;;;;;;;42.78;15.65;;;;;;;;;;4988563;28;20451;-77
2022/09/12 00:46:37;;;;;;;44.87;15.50;;;;;;;;;;4990609;28;20113;-77
2022/09/12 00:49:16;;;;;;;42.53;15.45;;;;;;;;;;4990010;28;20034;-76
2022/09/12 00:51:48;;;;;;;39.78;14.70;;;;;;;;;;4989622;28;20026;-77
2022/09/12 00:54:20;;;;;;;37.67;13.80;;;;;;;;;;4988881;28;20033;-76
2022/09/12 00:56:47;;;;;;;40.42;14.15;;;;;;;;;;4988524;28;20073;-77
2022/09/12 00:59:21;;;;;;;43.83;15.02;;;;;;;;;;4991242;28;20022;-79
2022/09/12 01:01:49;;;;;;;40.42;14.88;;;;;;;;;;4996177;28;20029;-75
2022/09/12 01:04:18;;;;;;;39.55;15.43;;;;;;;;;;4996171;28;20109;-76
2022/09/12 01:06:45;;;;;;;40.67;14.07;;;;;;;;;;4997385;28;20018;-77
2022/09/12 01:09:14;;;;;;;32.05;13.52;;;;;;;;;;4997689;28;20034;-76
2022/09/12 01:11:40;;;;;;;33.53;13.55;;;;;;;;;;4997254;28;20030;-76
2022/09/12 01:14:06;;;;;;;37.78;13.57;;;;;;;;;;4996294;28;20091;-76
2022/09/12 01:16:35;;;;;;;35.65;13.70;;;;;;;;;;4996215;28;20022;-76
2022/09/12 01:19:11;;;;;;;29.88;13.20;;;;;;;;;;4995943;28;20516;-75
2022/09/12 01:22:14;;;;;;;28.67;12.85;;;;;;;;;;4997385;28;20108;-77
2022/09/12 01:24:53;;;;;;;23.10;11.80;;;;;;;;;;4997158;28;20030;-77
2022/09/12 01:27:25;;;;;;;24.58;11.70;;;;;;;;;;4996672;28;20376;-77
2022/09/12 01:30:15;;;;;;;27.25;11.98;;;;;;;;;;4994436;28;20026;-77
2022/09/12 01:33:05;;;;;;;32.78;13.60;;;;;;;;;;4996140;28;20435;-76
2022/09/12 01:35:52;;;;;;;27.83;12.32;;;;;;;;;;4994378;28;20056;-76
2022/09/12 01:38:23;;;;;;;23.52;12.60;;;;;;;;;;4995726;28;20030;-77
2022/09/12 01:41:05;;;;;;;28.58;12.88;;;;;;;;;;4996556;28;20109;-76
2022/09/12 01:43:34;;;;;;;32.80;12.63;;;;;;;;;;4995433;28;20030;-77
2022/09/12 01:46:08;;;;;;;34.28;13.38;;;;;;;;;;4994065;28;20034;-76
2022/09/12 01:48:38;;;;;;;27.85;12.13;;;;;;;;;;4995268;28;20026;-76
2022/09/12 01:51:10;;;;;;;33.15;12.90;;;;;;;;;;4995769;28;20023;-76
2022/09/12 01:53:41;;;;;;;33.28;12.80;;;;;;;;;;4995839;28;20483;-77
2022/09/12 01:56:14;;;;;;;28.10;12.60;;;;;;;;;;4995414;28;20093;-77
2022/09/12 01:58:46;;;;;;;39.13;15.07;;;;;;;;;;4995671;28;20396;-76
2022/09/12 02:01:17;;;;;;;35.58;13.52;;;;;;;;;;4995546;28;20026;-77
2022/09/12 02:03:51;;;;;;;37.47;14.60;;;;;;;;;;4995985;28;20053;-77
2022/09/12 02:06:34;;;;;;;32.92;13.77;;;;;;;;;;4995445;28;20110;-76
2022/09/12 02:09:07;;;;;;;33.83;14.65;;;;;;;;;;4994949;28;20117;-77
2022/09/12 02:11:37;;;;;;;36.90;13.93;;;;;;;;;;4995960;28;20030;-77
2022/09/12 02:14:07;;;;;;;31.92;13.55;;;;;;;;;;4994997;28;20026;-77
2022/09/12 02:16:39;;;;;;;30.52;13.48;;;;;;;;;;4994878;28;20029;-77
2022/09/12 02:19:11;;;;;;;39.97;14.80;;;;;;;;;;4995607;28;20463;-76
2022/09/12 02:21:41;;;;;;;38.85;14.38;;;;;;;;;;4995111;28;20080;-77
2022/09/12 02:24:11;;;;;;;35.53;13.93;;;;;;;;;;4995132;28;20034;-77
2022/09/12 02:26:54;;;;;;;33.55;14.32;;;;;;;;;;4994757;28;20026;-76
2022/09/12 02:29:20;;;;;;;33.97;13.98;;;;;;;;;;4962973;28;968867;-77
2022/09/12 02:31:48;;;;;;;35.67;15.05;;;;;;;;;;4996491;28;20046;-76
2022/09/12 02:34:43;;;;;;;33.55;13.45;;;;;;;;;;4996188;28;20023;-76
2022/09/12 02:37:14;;;;;;;37.33;14.23;;;;;;;;;;4995675;28;20032;-77
2022/09/12 02:39:39;;;;;;;31.63;13.88;;;;;;;;;;4996127;28;20030;-77
2022/09/12 02:42:05;;;;;;;32.00;13.32;;;;;;;;;;4994761;28;20117;-77
2022/09/12 02:44:32;;;;;;;35.50;14.20;;;;;;;;;;4995989;28;20069;-76
2022/09/12 02:47:03;;;;;;;34.35;14.32;;;;;;;;;;4996070;28;20030;-77
2022/09/12 02:49:29;;;;;;;32.22;14.00;;;;;;;;;;4996516;28;20026;-76
2022/09/12 02:51:54;;;;;;;38.47;14.70;;;;;;;;;;4995720;28;20113;-76
2022/09/12 02:54:19;;;;;;;34.53;15.20;;;;;;;;;;4995560;28;20030;-76
2022/09/12 02:56:45;;;;;;;39.35;15.07;;;;;;;;;;4994047;28;20026;-76
2022/09/12 02:59:15;;;;;;;38.13;14.50;;;;;;;;;;4997017;28;20399;-77
2022/09/12 03:01:54;;;;;;;34.35;14.98;;;;;;;;;;4996366;28;20117;-77
2022/09/12 03:04:36;;;;;;;44.72;15.07;;;;;;;;;;4995690;28;20037;-77
2022/09/12 03:07:20;;;;;;;35.85;15.07;;;;;;;;;;4995783;28;20030;-77
2022/09/12 03:10:07;;;;;;;37.90;15.20;;;;;;;;;;4994160;28;20479;-76
2022/09/12 03:12:52;;;;;;;42.60;15.27;;;;;;;;;;4995070;28;20054;-78
2022/09/12 03:15:39;;;;;;;43.80;16.20;;;;;;;;;;4995337;28;20018;-76
2022/09/12 03:18:11;;;;;;;41.10;15.27;;;;;;;;;;4993705;28;20022;-77
2022/09/12 03:20:45;;;;;;;41.78;16.35;;;;;;;;;;4995066;28;20550;-76
2022/09/12 03:23:49;;;;;;;38.70;14.80;;;;;;;;;;4994307;28;20101;-77
2022/09/12 03:26:27;;;;;;;49.22;15.45;;;;;;;;;;4976856;28;20495;-75
2022/09/12 03:28:54;;;;;;;40.00;15.85;;;;;;;;;;4993391;28;20045;-77
2022/09/12 03:31:19;;;;;;;44.95;16.08;;;;;;;;;;4995007;28;20034;-75
2022/09/12 03:33:44;;;;;;;43.85;16.58;;;;;;;;;;4994765;28;20076;-76
2022/09/12 03:36:21;;;;;;;41.13;15.13;;;;;;;;;;4994428;28;20018;-76
2022/09/12 03:38:46;;;;;;;39.53;15.15;;;;;;;;;;4994680;28;20133;-75
2022/09/12 03:41:12;;;;;;;44.03;15.40;;;;;;;;;;4994941;28;20157;-77
2022/09/12 03:43:37;;;;;;;40.95;15.20;;;;;;;;;;4994520;28;20779;-77
2022/09/12 03:46:02;;;;;;;46.75;16.02;;;;;;;;;;4994511;28;20419;-77
2022/09/12 03:48:28;;;;;;;43.83;15.65;;;;;;;;;;4994595;28;20029;-75
2022/09/12 03:50:53;;;;;;;38.80;14.87;;;;;;;;;;4995531;28;20089;-76
2022/09/12 03:53:18;;;;;;;44.80;15.70;;;;;;;;;;4994619;28;20385;-76
2022/09/12 03:55:43;;;;;;;39.08;15.88;;;;;;;;;;4993577;28;20291;-76
2022/09/12 03:58:09;;;;;;;46.45;15.63;;;;;;;;;;4994229;28;20037;-76
2022/09/12 04:00:34;;;;;;;41.70;15.30;;;;;;;;;;4993751;28;20026;-77
2022/09/12 04:02:59;;;;;;;44.08;15.57;;;;;;;;;;4994300;28;20471;-77
2022/09/12 04:05:25;;;;;;;44.63;15.00;;;;;;;;;;4994626;28;20101;-77
2022/09/12 04:07:51;;;;;;;50.28;16.05;;;;;;;;;;4993525;28;20256;-77
2022/09/12 04:10:16;;;;;;;45.35;15.70;;;;;;;;;;4993896;28;20050;-77
2022/09/12 04:12:42;;;;;;;41.97;15.32;;;;;;;;;;4994073;28;20022;-77
2022/09/12 04:15:08;;;;;;;43.28;15.15;;;;;;;;;;4994558;28;20033;-75
2022/09/12 04:17:33;;;;;;;38.72;16.00;;;;;;;;;;4994149;28;20160;-77
2022/09/12 04:19:59;;;;;;;53.00;17.17;;;;;;;;;;4994905;28;20074;-77
2022/09/12 04:22:24;;;;;;;46.20;16.42;;;;;;;;;;4993980;28;20113;-76
2022/09/12 04:24:50;;;;;;;38.93;16.03;;;;;;;;;;4993746;28;20070;-76
2022/09/12 04:27:15;;;;;;;39.40;15.55;;;;;;;;;;4993328;28;20264;-76
2022/09/12 04:29:40;;;;;;;48.17;17.35;;;;;;;;;;4993569;28;20031;-77
2022/09/12 04:32:06;;;;;;;41.13;15.87;;;;;;;;;;4992230;28;20065;-75
2022/09/12 04:34:31;;;;;;;38.03;15.25;;;;;;;;;;4993978;28;20295;-76
2022/09/12 04:36:57;;;;;;;42.60;16.08;;;;;;;;;;4993505;28;20479;-76
2022/09/12 04:39:22;;;;;;;45.28;15.90;;;;;;;;;;4993770;28;20109;-76
2022/09/12 04:41:47;;;;;;;46.53;15.63;;;;;;;;;;4993576;28;20064;-77
2022/09/12 04:44:13;;;;;;;45.17;17.80;;;;;;;;;;4994035;28;20033;-77
2022/09/12 04:46:42;;;;;;;36.92;14.55;;;;;;;;;;4991959;28;20022;-76
2022/09/12 04:49:07;;;;;;;42.92;16.90;;;;;;;;;;4993116;28;20041;-76
2022/09/12 04:51:35;;;;;;;44.00;16.10;;;;;;;;;;4993729;28;20030;-75
2022/09/12 04:54:10;;;;;;;38.53;15.52;;;;;;;;;;4993776;28;20026;-77
2022/09/12 04:56:40;;;;;;;39.55;15.63;;;;;;;;;;4993612;28;20068;-77
2022/09/12 04:59:06;;;;;;;41.55;16.40;;;;;;;;;;4993249;28;20030;-77
2022/09/12 05:01:31;;;;;;;41.17;17.48;;;;;;;;;;4991970;28;20038;-76
2022/09/12 05:03:58;;;;;;;50.95;17.40;;;;;;;;;;4994196;28;20026;-77
2022/09/12 05:06:27;;;;;;;48.00;16.30;;;;;;;;;;4992953;28;20030;-77
2022/09/12 05:08:54;;;;;;;51.55;18.20;;;;;;;;;;4991977;28;20022;-76
2022/09/12 05:11:23;;;;;;;51.15;18.92;;;;;;;;;;4992815;28;20034;-77
2022/09/12 05:13:49;;;;;;;44.03;16.65;;;;;;;;;;4995044;28;20030;-77
2022/09/12 05:16:16;;;;;;;40.67;15.70;;;;;;;;;;4993161;28;20025;-77
2022/09/12 05:18:43;;;;;;;42.85;18.10;;;;;;;;;;4993908;28;20109;-76
2022/09/12 05:21:11;;;;;;;52.47;18.35;;;;;;;;;;4994100;28;20090;-76
2022/09/12 05:23:36;;;;;;;44.50;16.63;;;;;;;;;;4991666;28;20026;-76
2022/09/12 05:26:03;;;;;;;46.92;17.25;;;;;;;;;;4993132;28;20076;-76
2022/09/12 05:28:32;;;;;;;42.25;17.05;;;;;;;;;;4994437;28;20073;-76
2022/09/12 05:31:11;;;;;;;46.15;17.67;;;;;;;;;;4993247;28;20228;-76
2022/09/12 05:33:38;;;;;;;37.83;16.75;;;;;;;;;;4993234;28;20068;-76
2022/09/12 05:36:06;;;;;;;45.75;17.23;;;;;;;;;;4992991;28;20499;-76
2022/09/12 05:38:34;;;;;;;42.78;16.67;;;;;;;;;;4992991;28;20177;-77
2022/09/12 05:41:11;;;;;;;36.53;15.35;;;;;;;;;;4992674;28;20110;-77
2022/09/12 05:43:38;;;;;;;34.50;15.27;;;;;;;;;;4992679;28;20022;-77
2022/09/12 05:46:08;;;;;;;43.83;16.88;;;;;;;;;;4995533;28;20038;-77
2022/09/12 05:48:35;;;;;;;37.15;15.55;;;;;;;;;;4994967;28;20026;-77
2022/09/12 05:51:07;;;;;;;40.15;16.48;;;;;;;;;;4995332;28;20387;-76
2022/09/12 05:53:33;;;;;;;42.20;16.65;;;;;;;;;;4994949;28;20018;-76
2022/09/12 05:56:09;;;;;;;36.88;16.55;;;;;;;;;;4996738;28;20022;-77
2022/09/12 05:58:36;;;;;;;41.60;16.75;;;;;;;;;;4995054;28;20031;-76
2022/09/12 06:01:04;;;;;;;37.22;16.67;;;;;;;;;;4996261;28;20109;-76
2022/09/12 06:03:30;;;;;;;34.95;16.42;;;;;;;;;;4996419;28;20053;-76
2022/09/12 06:05:55;;;;;;;37.90;16.60;;;;;;;;;;4996054;28;20061;-76
2022/09/12 06:08:20;;;;;;;37.27;16.60;;;;;;;;;;4994853;28;20027;-76
2022/09/12 06:10:45;;;;;;;34.90;15.83;;;;;;;;;;4998105;28;20276;-77
2022/09/12 06:13:11;;;;;;;38.10;16.17;;;;;;;;;;4995756;28;20287;-78
2022/09/12 06:15:36;;;;;;;40.57;15.83;;;;;;;;;;4999398;28;20255;-78
2022/09/12 06:18:01;;;;;;;39.83;16.25;;;;;;;;;;4998640;28;20310;-77
2022/09/12 06:20:27;;;;;;;30.75;16.52;;;;;;;;;;4999922;28;20026;-78
2022/09/12 06:22:52;;;;;;;32.37;16.20;;;;;;;;;;4998954;28;20384;-78
2022/09/12 06:25:17;;;;;;;34.63;15.80;;;;;;;;;;4998431;28;20641;-78
2022/09/12 06:27:43;;;;;;;34.20;15.30;;;;;;;;;;4997360;28;20057;-77
2022/09/12 06:30:08;;;;;;;33.73;15.83;;;;;;;;;;4997854;28;20272;-77
2022/09/12 06:32:33;;;;;;;34.58;16.20;;;;;;;;;;4998473;28;20256;-79
2022/09/12 06:34:59;;;;;;;31.25;14.70;;;;;;;;;;4997895;28;20018;-78
2022/09/12 06:37:24;;;;;;;32.08;16.55;;;;;;;;;;4996115;28;20027;-76
2022/09/12 06:39:49;;;;;;;30.50;14.83;;;;;;;;;;4996027;28;20144;-77
2022/09/12 06:42:15;;;;;;;31.60;15.10;;;;;;;;;;4995318;28;20268;-77
2022/09/12 06:44:40;;;;;;;36.88;15.80;;;;;;;;;;4995258;28;20334;-77
2022/09/12 06:47:06;;;;;;;34.87;16.67;;;;;;;;;;4995406;28;20505;-77
2022/09/12 06:49:32;;;;;;;31.50;16.17;;;;;;;;;;4997003;28;20817;-78
2022/09/12 06:51:57;;;;;;;31.10;16.40;;;;;;;;;;4997327;28;20376;-74
2022/09/12 06:54:25;;;;;;;33.97;16.08;;;;;;;;;;4996071;28;20037;-75
2022/09/12 06:56:50;;;;;;;35.25;15.30;;;;;;;;;;4994159;28;20029;-75
2022/09/12 06:59:15;;;;;;;32.63;15.52;;;;;;;;;;4996554;28;20018;-74
2022/09/12 07:01:41;;;;;;;31.10;15.93;;;;;;;;;;4997203;28;20057;-74
2022/09/12 07:04:06;;;;;;;28.77;15.20;;;;;;;;;;4996709;28;20490;-74
2022/09/12 07:06:40;;;;;;;31.15;15.65;;;;;;;;;;4996243;28;20772;-75
2022/09/12 07:09:08;;;;;;;26.95;14.73;;;;;;;;;;4994416;28;20093;-76
2022/09/12 07:11:36;;;;;;;33.30;15.75;;;;;;;;;;4995762;28;20064;-75
2022/09/12 07:14:05;;;;;;;32.40;15.60;;;;;;;;;;4994971;28;20040;-75
2022/09/12 07:16:30;;;;;;;32.15;15.68;;;;;;;;;;4996768;28;20117;-74
2022/09/12 07:18:58;;;;;;;30.55;15.75;;;;;;;;;;4996452;28;20058;-74
2022/09/12 07:21:23;;;;;;;31.92;15.27;;;;;;;;;;4995861;28;20578;-75
2022/09/12 07:23:50;;;;;;;35.47;15.77;;;;;;;;;;4995611;28;20049;-73
2022/09/12 07:26:16;;;;;;;25.67;14.85;;;;;;;;;;4997562;28;20125;-76
2022/09/12 07:28:42;;;;;;;28.80;15.80;;;;;;;;;;4995541;28;20027;-75
2022/09/12 07:31:17;;;;;;;30.45;15.55;;;;;;;;;;4996067;28;20076;-75
2022/09/12 07:33:42;;;;;;;30.42;15.20;;;;;;;;;;4996116;28;20387;-74
2022/09/12 07:36:11;;;;;;;31.45;16.52;;;;;;;;;;4995404;28;20027;-76
2022/09/12 07:38:37;;;;;;;27.55;14.40;;;;;;;;;;4995055;28;20499;-74
2022/09/12 07:41:28;;;;;;;28.88;14.00;;;;;;;;;;4995216;28;20037;-75
2022/09/12 07:43:55;;;;;;;28.58;14.77;;;;;;;;;;4995427;28;20031;-76
2022/09/12 07:46:22;;;;;;;24.05;13.20;;;;;;;;;;4995107;28;20494;-74
2022/09/12 07:48:54;;;;;;;24.40;13.70;;;;;;;;;;4994846;28;20031;-74
2022/09/12 07:51:20;;;;;;;22.10;12.88;;;;;;;;;;4995299;28;20026;-74
2022/09/12 07:53:48;;;;;;;23.08;12.60;;;;;;;;;;4994118;28;20018;-74
2022/09/12 07:56:14;;;;;;;22.67;12.90;;;;;;;;;;4994001;28;20505;-75
2022/09/12 07:58:40;;;;;;;19.58;12.35;;;;;;;;;;4995066;28;20044;-75
2022/09/12 08:01:18;;;;;;;21.02;12.70;;;;;;;;;;4994486;28;20026;-74
2022/09/12 08:03:45;;;;;;;18.52;11.90;;;;;;;;;;4994306;28;20026;-74
2022/09/12 08:06:19;;;;;;;19.45;11.80;;;;;;;;;;4993734;28;20089;-74
2022/09/12 08:08:44;;;;;;;17.80;11.15;;;;;;;;;;4994540;28;20515;-74
2022/09/12 08:11:13;;;;;;;14.05;10.02;;;;;;;;;;4995008;28;20038;-74
2022/09/12 08:13:39;;;;;;;15.32;10.18;;;;;;;;;;4994836;28;20034;-74
2022/09/12 08:16:07;;;;;;;17.48;10.20;;;;;;;;;;4993804;28;20031;-75
2022/09/12 08:18:35;;;;;;;14.18;9.93;;;;;;;;;;4994297;28;20431;-74
2022/09/12 08:21:05;;;;;;;16.33;9.77;;;;;;;;;;4994963;28;20041;-74
2022/09/12 08:23:32;;;;;;;14.07;9.52;;;;;;;;;;4995232;28;20482;-74
2022/09/12 08:26:00;;;;;;;17.70;10.32;;;;;;;;;;4994738;28;20084;-75
2022/09/12 08:28:25;;;;;;;13.65;9.35;;;;;;;;;;4994740;28;20041;-74
2022/09/12 08:30:51;;;;;;;13.98;8.82;;;;;;;;;;4993584;28;20026;-75
2022/09/12 08:33:17;;;;;;;14.98;8.82;;;;;;;;;;4993748;28;20109;-74
2022/09/12 08:35:42;;;;;;;12.40;7.88;;;;;;;;;;4993598;28;20108;-75
2022/09/12 08:38:07;;;;;;;11.40;8.37;;;;;;;;;;4994636;28;20027;-74
2022/09/12 08:40:46;;;;;;;13.30;7.90;;;;;;;;;;4993143;28;20271;-74
2022/09/12 08:43:48;;;;;;;12.77;8.13;;;;;;;;;;4994448;28;20324;-75
2022/09/12 08:46:31;;;;;;;13.52;7.70;;;;;;;;;;4992597;28;20026;-75
2022/09/12 08:48:58;;;;;;;12.90;7.30;;;;;;;;;;4993925;28;20030;-75
2022/09/12 08:51:24;;;;;;;11.68;7.45;;;;;;;;;;4993871;28;20133;-74
2022/09/12 08:53:53;;;;;;;12.13;7.43;;;;;;;;;;4993702;28;20033;-74
2022/09/12 08:56:18;;;;;;;10.18;6.88;;;;;;;;;;4993984;28;20391;-75
2022/09/12 08:58:44;;;;;;;10.20;7.47;;;;;;;;;;4992649;28;20022;-75
2022/09/12 09:01:39;;;;;;;9.40;6.65;;;;;;;;;;4994154;28;20260;-75
2022/09/12 09:04:30;;;;;;;10.00;6.63;;;;;;;;;;4994968;28;20050;-75
2022/09/12 09:07:46;;;;;;;6.95;5.80;;;;;;;;;;4994321;28;20034;-75
2022/09/12 09:10:26;;;;;;;7.03;4.90;;;;;;;;;;4972363;28;20026;-75
2022/09/12 09:12:57;;;;;;;9.82;5.15;;;;;;;;;;4972229;28;20102;-74
2022/09/12 09:15:37;;;;;;;7.22;4.65;;;;;;;;;;4985371;28;20038;-74
2022/09/12 09:18:34;;;;;;;8.25;4.80;;;;;;;;;;4992320;28;20061;-75
2022/09/12 09:21:29;;;;;;;6.15;4.45;;;;;;;;;;4995353;28;20046;-74
2022/09/12 09:24:05;;;;;;;9.30;4.95;;;;;;;;;;4997608;28;20022;-74
2022/09/12 09:26:55;;;;;;;9.23;5.20;;;;;;;;;;4997943;28;20035;-74
2022/09/12 09:29:25;;;;;;;7.72;4.55;;;;;;;;;;4997979;28;20108;-75
2022/09/12 09:31:56;;;;;;;6.22;4.40;;;;;;;;;;4998210;28;20040;-74
2022/09/12 09:34:24;;;;;;;5.40;3.95;;;;;;;;;;4998573;28;20026;-73
2022/09/12 09:37:12;;;;;;;5.32;4.03;;;;;;;;;;4997887;28;20023;-75
2022/09/12 09:39:46;;;;;;;7.63;4.43;;;;;;;;;;4998338;28;20027;-74
2022/09/12 09:42:39;;;;;;;9.48;4.72;;;;;;;;;;4997602;28;20031;-74
2022/09/12 09:45:14;;;;;;;5.78;4.10;;;;;;;;;;4997072;28;20105;-74
2022/09/12 09:47:40;;;;;;;5.10;3.88;;;;;;;;;;4997054;28;20030;-75
2022/09/12 09:50:05;;;;;;;7.93;3.80;;;;;;;;;;4997097;28;20097;-74
2022/09/12 09:52:31;;;;;;;5.57;4.18;;;;;;;;;;4997277;28;20073;-74
2022/09/12 09:54:59;;;;;;;4.70;3.78;;;;;;;;;;4996819;28;20030;-75
2022/09/12 09:57:33;;;;;;;4.68;3.75;;;;;;;;;;4996938;28;20029;-74
2022/09/12 10:00:26;;;;;;;4.22;3.50;;;;;;;;;;4995759;28;20395;-75
2022/09/12 10:03:11;;;;;;;4.85;3.08;;;;;;;;;;4997197;28;20113;-74
2022/09/12 10:05:53;;;;;;;3.67;2.60;;;;;;;;;;4996973;28;20026;-74
2022/09/12 10:08:25;;;;;;;3.35;2.53;;;;;;;;;;4995389;28;20026;-74
2022/09/12 10:10:54;;;;;;;2.45;2.17;;;;;;;;;;4996890;28;20057;-75
2022/09/12 10:13:26;;;;;;;4.50;3.25;;;;;;;;;;4996818;28;20034;-75
2022/09/12 10:15:57;;;;;;;4.97;2.95;;;;;;;;;;4995623;28;20068;-75
2022/09/12 10:18:51;;;;;;;3.08;2.35;;;;;;;;;;4995278;28;20081;-76
2022/09/12 10:21:28;;;;;;;3.65;2.35;;;;;;;;;;4995809;28;20118;-74
2022/09/12 10:23:59;;;;;;;6.97;2.90;;;;;;;;;;4995202;28;20483;-75
2022/09/12 10:26:26;;;;;;;4.57;2.70;;;;;;;;;;4996443;28;20499;-74
2022/09/12 10:28:54;;;;;;;3.55;2.80;;;;;;;;;;4996139;28;20030;-74
2022/09/12 10:31:27;;;;;;;6.03;2.70;;;;;;;;;;4996244;28;20113;-74
2022/09/12 10:33:56;;;;;;;2.78;2.38;;;;;;;;;;4995307;28;20157;-75
2022/09/12 10:36:22;;;;;;;4.20;3.00;;;;;;;;;;4996586;28;20057;-74
2022/09/12 10:38:51;;;;;;;4.35;2.80;;;;;;;;;;4996372;28;20113;-75
2022/09/12 10:41:17;;;;;;;3.97;2.78;;;;;;;;;;4996487;28;20030;-74
2022/09/12 10:43:42;;;;;;;3.25;2.53;;;;;;;;;;4996291;28;20022;-73
2022/09/12 10:46:14;;;;;;;4.72;2.97;;;;;;;;;;4994799;28;20029;-75
2022/09/12 10:48:40;;;;;;;3.50;2.47;;;;;;;;;;4996114;28;20026;-74
2022/09/12 10:51:24;;;;;;;4.28;2.70;;;;;;;;;;4996004;28;20030;-74
2022/09/12 10:53:53;;;;;;;4.32;2.70;;;;;;;;;;4994639;28;20034;-75
2022/09/12 10:56:24;;;;;;;3.38;2.40;;;;;;;;;;4995873;28;20032;-73
2022/09/12 10:59:27;;;;;;;3.75;2.40;;;;;;;;;;4995599;28;20041;-74
2022/09/12 11:02:31;;;;;;;4.68;2.80;;;;;;;;;;4994691;28;20545;-74
2022/09/12 11:05:28;;;;;;;3.75;2.40;;;;;;;;;;4995994;28;20030;-74
2022/09/12 11:08:00;;;;;;;3.25;2.50;;;;;;;;;;4996019;28;20030;-74
2022/09/12 11:10:46;;;;;;;3.63;2.40;;;;;;;;;;4996068;28;20026;-73
2022/09/12 11:13:21;;;;;;;2.38;2.08;;;;;;;;;;4995375;28;20034;-74
2022/09/12 11:15:58;;;;;;;3.08;1.88;;;;;;;;;;4996072;28;20081;-74
2022/09/12 11:18:39;;;;;;;2.38;1.80;;;;;;;;;;4995716;28;20092;-74
2022/09/12 11:21:49;;;;;;;2.17;1.40;;;;;;;;;;4995362;28;20386;-74
2022/09/12 11:24:31;;;;;;;1.90;1.40;;;;;;;;;;4993101;28;20038;-74
2022/09/12 11:27:05;;;;;;;1.67;1.30;;;;;;;;;;4994815;28;20133;-76
2022/09/12 11:29:58;;;;;;;2.42;1.50;;;;;;;;;;4995239;28;20094;-75
2022/09/12 11:32:59;;;;;;;4.60;1.20;;;;;;;;;;4995454;28;20075;-74
2022/09/12 11:35:27;;;;;;;1.52;1.38;;;;;;;;;;4995287;28;20076;-74
2022/09/12 11:38:16;;;;;;;3.40;1.30;;;;;;;;;;4993945;28;20022;-74
2022/09/12 11:41:03;;;;;;;2.78;1.50;;;;;;;;;;4995359;28;20458;-74
2022/09/12 11:43:39;;;;;;;1.70;1.30;;;;;;;;;;4994658;28;20034;-74
2022/09/12 11:46:15;;;;;;;2.55;1.20;;;;;;;;;;4995048;28;20035;-74
2022/09/12 11:48:50;;;;;;;1.85;1.65;;;;;;;;;;4994797;28;20026;-74
2022/09/12 11:51:24;;;;;;;4.15;1.35;;;;;;;;;;4994764;28;20029;-74
2022/09/12 11:53:58;;;;;;;3.33;1.30;;;;;;;;;;4994937;28;20076;-73
2022/09/12 11:56:24;;;;;;;1.67;1.40;;;;;;;;;;4995020;28;20025;-74
2022/09/12 11:59:00;;;;;;;1.48;1.30;;;;;;;;;;4994488;28;20038;-75
2022/09/12 12:01:32;;;;;;;2.25;1.27;;;;;;;;;;4994821;28;20026;-74
2022/09/12 12:04:05;;;;;;;1.85;1.40;;;;;;;;;;4993094;28;20565;-74
2022/09/12 12:06:35;;;;;;;1.80;1.20;;;;;;;;;;4994487;28;20506;-75
2022/09/12 12:09:03;;;;;;;2.05;1.30;;;;;;;;;;4994259;28;20566;-74
2022/09/12 12:11:38;;;;;;;1.63;1.42;;;;;;;;;;4993088;28;20030;-74
2022/09/12 12:14:11;;;;;;;1.45;1.20;;;;;;;;;;4994448;28;20023;-75
2022/09/12 12:16:38;;;;;;;6.57;1.50;;;;;;;;;;4994685;28;20034;-74
2022/09/12 12:19:30;;;;;;;1.90;1.15;;;;;;;;;;4994218;28;20506;-75
2022/09/12 12:22:05;;;;;;;1.58;1.38;;;;;;;;;;4993067;28;20104;-73
2022/09/12 12:24:32;;;;;;;2.38;1.23;;;;;;;;;;4994732;28;20034;-74
2022/09/12 12:27:01;;;;;;;1.42;1.30;;;;;;;;;;4994448;28;20030;-75
2022/09/12 12:29:38;;;;;;;1.92;1.40;;;;;;;;;;4994094;28;20042;-75
2022/09/12 12:32:03;;;;;;;1.55;1.35;;;;;;;;;;4994324;28;20057;-75
2022/09/12 12:34:28;;;;;;;1.87;1.40;;;;;;;;;;4994539;28;20471;-75
2022/09/12 12:36:54;;;;;;;2.40;1.33;;;;;;;;;;4994036;28;20299;-75
2022/09/12 12:39:31;;;;;;;2.28;1.25;;;;;;;;;;4992766;28;20483;-74
2022/09/12 12:42:00;;;;;;;1.27;1.17;;;;;;;;;;4994100;28;20030;-74
2022/09/12 12:44:43;;;;;;;2.80;1.20;;;;;;;;;;4993932;28;20034;-74
2022/09/12 12:47:24;;;;;;;2.67;1.20;;;;;;;;;;4993891;28;20026;-75
2022/09/12 12:50:19;;;;;;;1.67;1.10;;;;;;;;;;4994123;28;20034;-74
2022/09/12 12:52:49;;;;;;;2.97;1.20;;;;;;;;;;4993815;28;20122;-75
2022/09/12 12:55:22;;;;;;;1.60;1.20;;;;;;;;;;4993266;28;20026;-74
2022/09/12 12:57:55;;;;;;;1.13;1.02;;;;;;;;;;4993883;28;20498;-74
2022/09/12 13:00:23;;;;;;;1.67;1.13;;;;;;;;;;4993682;28;20026;-75
2022/09/12 13:02:54;;;;;;;1.30;1.17;;;;;;;;;;4994688;28;20080;-75
2022/09/12 13:05:23;;;;;;;1.40;1.10;;;;;;;;;;4994123;28;20037;-74
2022/09/12 13:08:04;;;;;;;1.40;1.17;;;;;;;;;;4993101;28;20109;-75
2022/09/12 13:10:30;;;;;;;2.20;1.25;;;;;;;;;;4992788;28;20483;-74
2022/09/12 13:13:04;;;;;;;3.10;1.30;;;;;;;;;;4994442;28;20030;-75
2022/09/12 13:15:32;;;;;;;1.17;0.98;;;;;;;;;;4994111;28;20022;-75
2022/09/12 13:18:00;;;;;;;1.73;1.10;;;;;;;;;;4993965;28;20069;-75
2022/09/12 13:20:34;;;;;;;4.93;1.80;;;;;;;;;;4994009;28;20030;-75
2022/09/12 13:22:59;;;;;;;1.52;1.30;;;;;;;;;;4994502;28;20027;-74
2022/09/12 13:25:33;;;;;;;3.55;1.10;;;;;;;;;;4992785;28;20034;-75
2022/09/12 13:28:15;;;;;;;1.20;1.10;;;;;;;;;;4994575;28;20038;-74
2022/09/12 13:30:57;;;;;;;1.48;1.20;;;;;;;;;;4994886;28;20057;-74
2022/09/12 13:33:35;;;;;;;1.20;1.10;;;;;;;;;;4993176;28;20084;-74
2022/09/12 13:36:43;;;;;;;1.38;1.15;;;;;;;;;;4994181;28;20027;-73
2022/09/12 13:39:28;;;;;;;2.15;1.25;;;;;;;;;;4986548;28;20038;-74
2022/09/12 13:42:31;;;;;;;2.30;1.30;;;;;;;;;;4994137;28;20061;-75
2022/09/12 13:45:20;;;;;;;3.58;1.33;;;;;;;;;;4993491;28;20430;-74
2022/09/12 13:47:48;;;;;;;2.92;1.17;;;;;;;;;;4993726;28;20023;-75
2022/09/12 13:50:19;;;;;;;3.92;1.00;;;;;;;;;;4993665;28;20023;-74
2022/09/12 13:52:54;;;;;;;1.40;1.20;;;;;;;;;;4993584;28;20038;-74
2022/09/12 13:55:28;;;;;;;1.20;1.10;;;;;;;;;;4993575;28;20101;-74
2022/09/12 13:58:23;;;;;;;2.08;1.10;;;;;;;;;;4993424;28;20049;-74
2022/09/12 14:01:01;;;;;;;2.60;1.10;;;;;;;;;;4992597;28;20381;-75
2022/09/12 14:06:17;;;;;;;1.73;1.23;;;;;;;;;;4994465;28;20057;-75
2022/09/12 14:08:43;;;;;;;1.20;1.10;;;;;;;;;;4995266;28;20056;-74
2022/09/12 14:11:21;;;;;;;2.45;1.10;;;;;;;;;;4996858;28;20022;-75
2022/09/12 14:13:47;;;;;;;5.07;1.15;;;;;;;;;;4996354;28;20023;-74
2022/09/12 14:16:15;;;;;;;3.20;1.25;;;;;;;;;;4996759;28;20018;-74
2022/09/12 14:18:43;;;;;;;4.93;1.02;;;;;;;;;;4996427;28;20022;-74
2022/09/12 14:21:21;;;;;;;1.25;1.10;;;;;;;;;;4996774;28;20093;-74
2022/09/12 14:23:47;;;;;;;1.80;1.08;;;;;;;;;;4997828;28;20022;-74
2022/09/12 14:26:16;;;;;;;2.15;0.85;;;;;;;;;;4996468;28;20027;-74
2022/09/12 14:28:46;;;;;;;1.02;0.90;;;;;;;;;;4996411;28;20061;-74
2022/09/12 14:31:11;;;;;;;2.45;1.05;;;;;;;;;;4996565;28;20385;-75
2022/09/12 14:34:15;;;;;;;1.93;1.23;;;;;;;;;;4996835;28;20033;-74
2022/09/12 14:36:41;;;;;;;;;;;;;;;;;;4996345;28;20022;-74
2022/09/12 14:39:28;;;;;;;3.43;1.10;;;;;;;;;;4996002;28;19924;-74
2022/09/12 14:42:15;;;;;;;1.40;1.20;;;;;;;;;;4996022;28;20034;-74
2022/09/12 14:44:50;;;;;;;1.40;1.10;;;;;;;;;;4996242;28;20138;-75
2022/09/12 14:47:23;;;;;;;4.22;1.30;;;;;;;;;;4995984;28;20117;-75
2022/09/12 14:49:52;;;;;;;1.77;1.20;;;;;;;;;;4994787;28;20030;-75
2022/09/12 14:52:25;;;;;;;1.05;0.95;;;;;;;;;;4996391;28;20030;-74
2022/09/12 14:55:00;;;;;;;1.42;1.00;;;;;;;;;;4995897;28;20137;-74
2022/09/12 14:57:39;;;;;;;1.00;0.90;;;;;;;;;;4995686;28;20036;-73
2022/09/12 15:00:10;;;;;;;0.93;0.90;;;;;;;;;;4994374;28;20403;-75